Time;durP1;ratioP1;P1;durP2;ratioP2;P2;SDS_P1;SDS_P2;PMS_P1;PMS_P2;Temp;Humidity;BMP_temperature;BMP_pressure;BME280_temperature;BME280_humidity;BME280_pressure;Samples;Min_cycle;Max_cycle;Signal;HPM_P1;HPM_P2
2023/06/25 05:21:20;;;;;;;17.27;11.85;;;21.20;99.90;;;;;;5095358;23;20255;-92
2023/06/25 05:24:08;;;;;;;17.17;10.75;;;21.30;99.90;;;;;;5074884;23;20192;-93
2023/06/25 05:26:53;;;;;;;;;;;;;;;;;;;;;
2023/06/25 05:29:06;;;;;;;13.50;9.05;;;21.40;99.90;;;;;;5075005;23;20146;-95
2023/06/25 05:31:13;;;;;;;16.65;9.77;;;21.50;99.90;;;;;;5055059;23;20305;-95
2023/06/25 05:33:37;;;;;;;16.13;9.90;;;21.50;99.90;;;;;;5028954;23;20220;-96
2023/06/25 05:36:33;;;;;;;;;;;;;;;;;;;;;
2023/06/25 05:39:00;;;;;;;11.23;7.55;;;21.70;99.90;;;;;;5072698;23;20162;-94
2023/06/25 05:41:43;;;;;;;10.60;7.60;;;21.70;99.90;;;;;;5049329;23;20154;-95
2023/06/25 05:44:45;;;;;;;;;;;;;;;;;;;;;
2023/06/25 05:54:26;;;;;;;10.18;7.47;;;22.00;99.90;;;;;;4951360;24;20676;-95
2023/06/25 09:39:10;;;;;;;6.55;3.50;;;39.40;98.00;;;;;;5098103;23;20214;-95
2023/06/25 09:49:13;;;;;;;9.65;3.00;;;39.40;98.40;;;;;;5098274;23;20681;-94
2023/06/25 09:55:38;;;;;;;5.78;3.70;;;39.90;97.30;;;;;;5068900;23;20195;-96
2023/06/25 11:16:58;;;;;;;5.20;3.72;;;33.20;99.90;;;;;;4901334;23;20209;-96
2023/06/25 12:43:31;;;;;;;5.93;3.28;;;34.00;99.90;;;;;;5097364;23;20204;-95
2023/06/25 13:15:32;;;;;;;;;;;;;;;;;;;;;
2023/06/25 13:21:41;;;;;;;5.22;3.83;;;33.90;99.90;;;;;;5095637;23;20260;-93
2023/06/25 13:23:51;;;;;;;4.10;3.50;;;34.20;99.90;;;;;;5064985;23;20217;-94
2023/06/25 13:36:48;;;;;;;;;;;;;;;;;;;;;
2023/06/25 14:22:14;;;;;;;4.70;3.75;;;34.10;99.90;;;;;;5100318;23;20654;-96
2023/06/25 14:57:13;;;;;;;9.93;3.47;;;33.90;99.90;;;;;;5004790;23;20198;-95
2023/06/25 14:59:46;;;;;;;3.60;3.05;;;33.80;99.50;;;;;;5070152;23;20153;-95
2023/06/25 15:02:02;;;;;;;4.60;3.15;;;33.90;99.90;;;;;;4975542;23;20190;-94
2023/06/25 15:04:49;;;;;;;;;;;;;;;;;;;;;
2023/06/25 15:08:27;;;;;;;8.10;3.50;;;33.80;98.70;;;;;;4974104;23;20190;-96
2023/06/25 15:11:19;;;;;;;4.97;3.45;;;33.80;99.90;;;;;;4951481;24;20194;-96
2023/06/25 15:14:24;;;;;;;9.85;3.42;;;33.70;99.90;;;;;;4860320;24;20634;-95
2023/06/25 15:16:53;;;;;;;3.88;3.38;;;33.50;99.90;;;;;;4904915;24;20185;-95
2023/06/25 15:19:00;;;;;;;5.32;3.55;;;33.30;99.90;;;;;;4883779;24;20269;-94
2023/06/25 15:24:28;;;;;;;6.55;3.20;;;33.50;99.90;;;;;;4860057;24;20163;-95
2023/06/25 15:26:47;;;;;;;4.25;3.40;;;33.40;99.90;;;;;;4891623;24;20488;-94
2023/06/25 15:29:34;;;;;;;3.67;3.30;;;33.20;99.90;;;;;;4974492;23;20207;-94
2023/06/25 15:31:54;;;;;;;5.75;3.22;;;33.20;99.90;;;;;;5019473;23;20481;-96
2023/06/25 15:34:33;;;;;;;4.13;3.40;;;33.30;99.90;;;;;;5046104;23;20157;-94
2023/06/25 15:38:04;;;;;;;;;;;;;;;;;;;;;
2023/06/25 15:41:39;;;;;;;4.82;3.47;;;33.70;99.80;;;;;;4951560;23;20173;-95
2023/06/25 15:44:30;;;;;;;3.75;3.17;;;33.50;99.90;;;;;;4831888;24;20164;-94
2023/06/25 15:47:39;;;;;;;8.90;3.42;;;33.30;99.90;;;;;;4894229;23;20524;-94
2023/06/25 15:49:39;;;;;;;6.07;3.20;;;33.40;99.80;;;;;;4928499;23;20160;-93
2023/06/25 15:58:20;;;;;;;3.97;3.22;;;33.40;99.90;;;;;;4943794;23;20200;-95
2023/06/25 16:01:10;;;;;;;8.52;3.38;;;33.40;99.90;;;;;;4859191;24;20163;-95
2023/06/25 16:09:49;;;;;;;8.15;3.50;;;33.10;99.90;;;;;;4882481;24;20174;-94
2023/06/25 16:12:00;;;;;;;5.05;3.38;;;33.00;99.90;;;;;;4868311;24;20619;-93
2023/06/25 16:14:47;;;;;;;4.40;3.58;;;33.00;99.90;;;;;;4929635;24;20161;-95
2023/06/25 16:17:49;;;;;;;;;;;;;;;;;;;;;
2023/06/25 16:23:53;;;;;;;4.00;3.33;;;32.90;99.90;;;;;;4942174;24;20625;-96
2023/06/25 16:26:18;;;;;;;8.85;3.83;;;33.00;99.90;;;;;;4910010;24;20161;-95
2023/06/25 16:28:41;;;;;;;;;;;;;;;;;;;;;
2023/06/25 16:31:05;;;;;;;3.80;2.90;;;32.90;99.90;;;;;;4927485;24;20185;-96
2023/06/25 16:39:39;;;;;;;4.30;3.45;;;32.90;99.90;;;;;;4941855;23;20207;-94
2023/06/25 16:45:40;;;;;;;5.22;3.05;;;32.70;99.90;;;;;;5002312;23;20172;-96
2023/06/25 16:49:24;;;;;;;4.15;3.03;;;32.70;99.90;;;;;;5076332;23;20232;-96
2023/06/25 16:54:45;;;;;;;6.90;3.22;;;32.50;99.90;;;;;;4986659;23;20166;-94
2023/06/25 17:00:39;;;;;;;4.20;3.17;;;32.10;99.90;;;;;;5095051;23;20199;-94
2023/06/25 17:03:45;;;;;;;9.07;3.70;;;32.20;99.90;;;;;;5073795;23;20156;-94
2023/06/25 17:16:31;;;;;;;6.25;2.90;;;32.30;99.90;;;;;;5095218;23;20215;-95
2023/06/25 17:19:26;;;;;;;5.22;3.50;;;32.30;99.90;;;;;;4883481;24;20292;-96
2023/06/25 17:25:12;;;;;;;6.07;3.40;;;32.40;99.90;;;;;;5051924;23;20161;-94
2023/06/25 17:28:34;;;;;;;;;;;;;;;;;;;;;
2023/06/25 17:30:59;;;;;;;5.00;3.22;;;32.40;99.90;;;;;;5047999;23;20175;-93
2023/06/25 17:36:28;;;;;;;4.35;3.30;;;32.40;99.90;;;;;;4993061;23;20234;-93
2023/06/25 17:39:17;;;;;;;4.97;3.33;;;32.20;99.90;;;;;;4982841;23;20180;-96
2023/06/25 17:41:38;;;;;;;3.53;3.22;;;32.20;99.90;;;;;;5021005;23;20235;-94
2023/06/25 17:44:07;;;;;;;;;;;;;;;;;;;;;
2023/06/25 17:47:29;;;;;;;6.15;3.28;;;31.80;99.90;;;;;;4972928;23;20164;-94
2023/06/25 17:49:37;;;;;;;5.32;3.28;;;31.90;99.90;;;;;;5036340;23;20161;-93
2023/06/25 17:52:12;;;;;;;4.05;3.10;;;31.90;99.90;;;;;;5020725;23;20150;-96
2023/06/25 17:57:49;;;;;;;4.20;3.10;;;31.90;99.90;;;;;;4949005;24;20217;-95
2023/06/25 18:00:23;;;;;;;;;;;;;;;;;;;;;
2023/06/25 18:02:34;;;;;;;5.45;3.50;;;31.70;99.90;;;;;;4972749;23;20163;-93
2023/06/25 18:05:03;;;;;;;7.47;3.60;;;31.70;99.90;;;;;;4989415;23;20146;-95
2023/06/25 18:07:36;;;;;;;3.40;3.10;;;31.80;99.90;;;;;;5020687;23;20159;-94
2023/06/25 18:10:10;;;;;;;;;;;;;;;;;;;;;
2023/06/25 18:12:29;;;;;;;4.32;3.30;;;31.90;99.90;;;;;;5021797;23;20177;-93
2023/06/25 18:14:35;;;;;;;4.25;3.40;;;31.90;99.90;;;;;;5020234;23;20193;-94
2023/06/25 18:19:42;;;;;;;4.60;3.20;;;31.80;99.90;;;;;;5045839;23;20209;-91
2023/06/25 18:21:53;;;;;;;6.03;3.67;;;31.60;99.90;;;;;;5020559;23;20159;-94
2023/06/25 18:23:54;;;;;;;3.85;3.45;;;31.70;99.90;;;;;;5020807;23;20150;-93
2023/06/25 18:26:15;;;;;;;11.15;3.70;;;31.60;99.90;;;;;;5021257;23;20154;-94
2023/06/25 18:28:36;;;;;;;5.10;3.20;;;31.60;99.90;;;;;;5044856;23;20159;-95
2023/06/25 18:30:40;;;;;;;4.13;3.67;;;31.50;99.90;;;;;;5021191;23;20155;-93
2023/06/25 18:32:41;;;;;;;4.70;3.38;;;31.40;99.90;;;;;;4997232;23;20484;-93
2023/06/25 18:34:47;;;;;;;3.65;3.25;;;31.30;99.90;;;;;;5020818;23;20551;-94
2023/06/25 18:36:48;;;;;;;9.27;3.70;;;31.20;99.90;;;;;;5020272;23;20669;-93
2023/06/25 18:38:52;;;;;;;5.43;3.50;;;31.10;99.90;;;;;;4997235;23;20209;-93
2023/06/25 18:41:10;;;;;;;;;;;;;;;;;;;;;
2023/06/25 18:43:23;;;;;;;5.43;3.47;;;31.10;99.90;;;;;;5044932;23;20218;-94
2023/06/25 18:45:26;;;;;;;4.30;3.50;;;31.10;99.90;;;;;;5044383;23;20621;-93
2023/06/25 18:47:31;;;;;;;6.40;3.78;;;30.90;99.90;;;;;;5020777;23;20175;-95
2023/06/25 18:49:35;;;;;;;4.45;3.70;;;30.90;99.90;;;;;;5020782;23;20178;-94
2023/06/25 18:51:55;;;;;;;7.43;3.78;;;30.90;99.90;;;;;;4996625;23;20159;-95
2023/06/25 18:54:26;;;;;;;11.55;3.30;;;30.90;99.90;;;;;;5020463;23;20234;-93
2023/06/25 18:56:47;;;;;;;4.00;3.50;;;30.80;99.90;;;;;;5014919;23;20199;-94
2023/06/25 18:58:50;;;;;;;6.18;3.80;;;30.70;99.90;;;;;;5019734;23;20709;-93
2023/06/25 19:02:05;;;;;;;;;;;;;;;;;;;;;
2023/06/25 19:04:40;;;;;;;9.65;3.67;;;30.30;99.90;;;;;;5029308;23;20602;-93
2023/06/25 19:07:09;;;;;;;5.18;3.70;;;30.10;99.90;;;;;;5021465;23;20166;-94
2023/06/25 19:09:31;;;;;;;7.00;3.88;;;29.90;99.90;;;;;;5021864;23;20154;-94
2023/06/25 19:12:29;;;;;;;;;;;;;;;;;;;;;
2023/06/25 19:19:03;;;;;;;;;;;;;;;;;;;;;
2023/06/25 19:32:55;;;;;;;;;;;;;;;;;;;;;
2023/06/25 19:38:32;;;;;;;6.55;3.78;;;28.90;99.90;;;;;;4911043;23;20201;-93
2023/06/25 19:46:03;;;;;;;4.57;3.78;;;28.70;99.90;;;;;;5104769;23;20216;-94
2023/06/25 19:56:24;;;;;;;8.73;4.03;;;28.20;99.90;;;;;;4997418;23;20166;-95
2023/06/25 19:59:57;;;;;;;5.72;4.00;;;28.00;99.90;;;;;;4903614;24;20269;-94
2023/06/25 20:05:11;;;;;;;7.57;3.85;;;28.00;99.90;;;;;;5069161;23;20155;-94
2023/06/25 20:08:06;;;;;;;;;;;;;;;;;;;;;
2023/06/25 20:21:09;;;;;;;;;;;;;;;;;;;;;
2023/06/25 20:48:53;;;;;;;5.43;4.20;;;27.00;99.90;;;;;;4836385;24;20216;-94
2023/06/25 20:51:29;;;;;;;9.15;3.83;;;27.00;99.90;;;;;;4819048;24;20213;-95
2023/06/25 20:54:37;;;;;;;5.78;3.45;;;27.00;99.90;;;;;;4881302;24;20162;-94
2023/06/25 20:59:54;;;;;;;8.10;4.15;;;26.80;99.90;;;;;;4911352;24;20169;-95
2023/06/25 21:04:39;;;;;;;4.65;3.70;;;26.70;99.90;;;;;;4926373;24;20161;-95
2023/06/25 21:06:56;;;;;;;5.75;3.80;;;26.70;99.90;;;;;;4926710;24;20164;-95
2023/06/25 21:09:49;;;;;;;4.55;3.80;;;26.70;99.90;;;;;;4926863;24;20164;-96
2023/06/25 21:12:31;;;;;;;;;;;;;;;;;;;;;
2023/06/25 21:14:38;;;;;;;6.47;3.67;;;26.60;99.90;;;;;;5044834;23;20189;-94
2023/06/25 21:17:04;;;;;;;;;;;;;;;;;;;;;
2023/06/25 21:19:13;;;;;;;5.05;4.43;;;26.70;99.90;;;;;;5068664;23;20525;-93
2023/06/25 21:21:53;;;;;;;5.45;3.75;;;26.60;99.90;;;;;;5020988;23;20258;-94
2023/06/25 21:24:36;;;;;;;;;;;;;;;;;;;;;
2023/06/25 21:27:08;;;;;;;6.65;4.05;;;26.50;99.90;;;;;;5070007;23;20176;-93
2023/06/25 21:29:42;;;;;;;5.65;4.20;;;26.40;99.90;;;;;;5046986;23;20158;-94
2023/06/25 21:31:53;;;;;;;6.50;3.90;;;26.20;99.90;;;;;;5047082;23;20149;-95
2023/06/25 21:34:38;;;;;;;11.68;3.75;;;26.20;99.90;;;;;;5044364;23;20609;-93
2023/06/25 21:37:35;;;;;;;9.90;4.40;;;26.10;99.90;;;;;;4948300;23;20322;-94
2023/06/25 21:39:57;;;;;;;5.00;3.78;;;26.20;99.90;;;;;;5023959;23;20605;-93
2023/06/25 21:42:06;;;;;;;4.35;3.70;;;26.10;99.90;;;;;;5021650;23;20154;-94
2023/06/25 21:44:20;;;;;;;11.73;4.10;;;26.10;99.90;;;;;;5044392;23;20669;-94
2023/06/25 21:46:20;;;;;;;6.45;3.75;;;26.20;99.90;;;;;;5045168;23;20146;-94
2023/06/25 21:48:27;;;;;;;10.98;4.03;;;26.10;99.90;;;;;;5045411;23;20257;-92
2023/06/25 21:50:28;;;;;;;7.13;3.75;;;26.10;99.90;;;;;;5044727;23;20241;-93
2023/06/25 21:52:29;;;;;;;5.97;3.97;;;26.10;99.90;;;;;;5021383;23;20262;-93
2023/06/25 21:54:30;;;;;;;5.70;4.22;;;26.20;99.90;;;;;;5022029;23;20229;-93
2023/06/25 21:56:42;;;;;;;8.02;4.07;;;26.20;99.90;;;;;;5046826;23;20276;-93
2023/06/25 21:58:54;;;;;;;8.02;4.20;;;26.20;99.90;;;;;;5021472;23;20241;-95
2023/06/25 22:00:58;;;;;;;5.47;4.30;;;26.30;99.90;;;;;;5023474;23;20218;-95
2023/06/25 22:03:01;;;;;;;6.78;3.85;;;26.60;99.90;;;;;;5029605;23;20151;-95
2023/06/25 22:05:02;;;;;;;4.85;4.20;;;26.80;99.90;;;;;;5024233;23;20602;-94
2023/06/25 22:07:06;;;;;;;11.27;4.40;;;26.80;99.90;;;;;;5073832;23;20157;-93
2023/06/25 22:09:12;;;;;;;8.70;4.50;;;26.70;99.90;;;;;;5049740;23;20154;-96
2023/06/25 22:11:25;;;;;;;14.00;4.68;;;26.60;99.90;;;;;;5022800;23;20455;-94
2023/06/25 22:13:57;;;;;;;;;;;;;;;;;;;;;
2023/06/25 22:16:02;;;;;;;8.18;4.20;;;26.20;99.90;;;;;;5053391;23;20617;-95
2023/06/25 22:18:10;;;;;;;6.97;4.00;;;26.00;99.90;;;;;;5030173;23;20231;-93
2023/06/25 22:20:14;;;;;;;9.50;4.30;;;26.00;99.90;;;;;;5050804;23;20608;-94
2023/06/25 22:22:43;;;;;;;7.32;4.20;;;26.00;99.90;;;;;;5049475;23;20620;-93
2023/06/25 22:25:13;;;;;;;;;;;;;;;;;;;;;
2023/06/25 22:28:14;;;;;;;14.00;4.35;;;25.90;99.90;;;;;;5072069;23;20501;-93
2023/06/25 22:30:35;;;;;;;13.27;3.83;;;25.80;99.90;;;;;;5029577;23;20590;-94
2023/06/25 22:33:52;;;;;;;;;;;;;;;;;;;;;
2023/06/25 22:35:53;;;;;;;7.72;4.07;;;25.50;99.90;;;;;;5026074;23;20158;-93
2023/06/25 22:41:17;;;;;;;8.35;4.53;;;25.40;99.90;;;;;;5034891;23;20180;-96
2023/06/25 22:46:33;;;;;;;8.90;4.45;;;25.40;99.90;;;;;;5068784;23;20157;-96
2023/06/25 22:48:34;;;;;;;16.90;4.68;;;25.30;99.90;;;;;;5055703;23;20170;-93
2023/06/25 22:51:15;;;;;;;;;;;;;;;;;;;;;
2023/06/25 22:53:23;;;;;;;11.77;4.13;;;25.30;99.90;;;;;;5051815;23;20244;-93
2023/06/25 22:55:24;;;;;;;7.15;4.32;;;25.30;99.90;;;;;;5026233;23;20241;-92
2023/06/25 22:58:09;;;;;;;10.18;4.10;;;25.30;99.90;;;;;;5022125;23;20197;-94
2023/06/25 23:00:16;;;;;;;6.93;4.13;;;25.30;99.90;;;;;;5046071;23;20178;-92
2023/06/25 23:02:37;;;;;;;4.70;4.18;;;25.20;99.90;;;;;;5052403;23;20159;-91
2023/06/25 23:04:38;;;;;;;6.38;3.90;;;25.30;99.90;;;;;;5051236;23;20222;-94
2023/06/25 23:06:38;;;;;;;8.23;4.00;;;25.20;99.90;;;;;;5049148;23;20158;-91
2023/06/25 23:08:39;;;;;;;5.65;3.75;;;25.10;99.90;;;;;;5022941;23;20174;-87
2023/06/25 23:10:43;;;;;;;6.47;3.83;;;24.90;99.90;;;;;;5045604;23;20242;-93
2023/06/25 23:12:47;;;;;;;8.23;4.82;;;24.80;99.90;;;;;;5046219;23;20240;-92
2023/06/25 23:15:08;;;;;;;8.65;4.32;;;24.60;99.90;;;;;;5046146;23;20233;-94
2023/06/25 23:17:28;;;;;;;10.77;3.95;;;24.80;99.90;;;;;;5020740;23;20195;-93
2023/06/25 23:19:34;;;;;;;8.68;4.03;;;24.60;99.90;;;;;;5045957;23;20661;-95
2023/06/25 23:22:12;;;;;;;6.15;3.75;;;24.60;99.90;;;;;;5047223;23;20516;-93
2023/06/25 23:24:14;;;;;;;8.95;4.05;;;24.60;99.90;;;;;;5021166;23;20531;-92
2023/06/25 23:26:20;;;;;;;13.43;4.68;;;24.70;99.90;;;;;;5022029;23;20155;-94
2023/06/25 23:28:36;;;;;;;10.40;4.43;;;24.60;99.90;;;;;;5024021;23;20218;-96
2023/06/25 23:30:47;;;;;;;8.30;4.25;;;24.60;99.90;;;;;;5046588;23;20158;-94
2023/06/25 23:32:51;;;;;;;8.48;4.70;;;24.40;99.90;;;;;;5046902;23;20186;-93
2023/06/25 23:34:54;;;;;;;8.07;4.13;;;24.20;99.90;;;;;;5046693;23;20229;-92
2023/06/25 23:37:07;;;;;;;5.68;4.18;;;24.10;99.90;;;;;;5023196;23;20234;-94
2023/06/25 23:39:08;;;;;;;5.65;4.07;;;24.10;99.90;;;;;;5023294;23;20155;-94
2023/06/25 23:41:13;;;;;;;8.13;4.47;;;24.20;99.90;;;;;;5021488;23;20159;-92
2023/06/25 23:43:26;;;;;;;6.85;3.65;;;23.80;99.90;;;;;;5022010;23;20261;-95
2023/06/25 23:45:27;;;;;;;6.75;3.95;;;23.70;99.90;;;;;;5046437;23;20158;-92
2023/06/25 23:47:31;;;;;;;7.68;3.65;;;23.60;99.90;;;;;;5021614;23;20177;-94
2023/06/25 23:49:40;;;;;;;7.03;3.42;;;23.50;99.90;;;;;;5022199;23;20222;-93
2023/06/25 23:51:44;;;;;;;6.60;3.10;;;23.40;99.90;;;;;;5046438;23;20153;-93
2023/06/25 23:53:47;;;;;;;6.50;3.00;;;23.20;99.90;;;;;;5046954;23;20164;-93
2023/06/25 23:56:08;;;;;;;4.53;2.80;;;23.20;99.90;;;;;;5025258;23;20502;-95
2023/06/25 23:58:19;;;;;;;9.50;2.78;;;23.20;99.90;;;;;;5049663;23;20740;-92
